Coronel Xavier Chaves, Brazil
Current Conditions -  °F | °C
As of 3:15 PM on Friday 31 Oct 2014 (Local Time) from SBBQ Reporting Station
Thunderstorm Thunderstorm  
Wind Chill: 79°   Ceiling: 4000
Heat Index: 80°   Visibility: 6mi
Dew Point: 61°   Wind: 5mph
Humidity: 54%   Direction: 40°NE
Pressure: 30.09"   Gusts: NA
Location:  21.02°S, 44.22°W
Report Text: SBBQ 311715Z 04004KT 9999 TS BKN040 FEW050CB 26/16 Q1019
Loading
Personal Weather Stations






























Interactive Weather Map
Tropical Storm Tracking
New forecast layout! Learn more

10-Day Weather Forecast

Advertisements
Track Severe Weather on mobile